SARI METAR and TAF weather

Enter ICAO airport designator
Station Type Date Time Source
SARI METAR 2022/07/01 01:00 UTC NOAA

SARI 010100Z 15004KT CAVOK 13/13 Q1016 RMK PP000


Station Type Date Time Source
SARI Decoded METAR 2022/07/01 01:00 UTC NOAA

Iguazu Aerodrome, Argentina (SARI) 25-44S 054-28W 270M
Jun 30, 2022 - 09:00 PM EDT / 2022.07.01 0100 UTC
Wind: from the SSE (150 degrees) at 5 MPH (4 KT):0
Visibility: greater than 7 mile(s):0
Temperature: 55 F (13 C)
Dew Point: 55 F (13 C)
Relative Humidity: 100%
Pressure (altimeter): 30.00 in. Hg (1016 hPa)
ob: SARI 010100Z 15004KT CAVOK 13/13 Q1016 RMK PP000
cycle: 1

Station Type Date Time Source
SARI TAF 2022/06/30 18:51 UTC NOAA

TAF TAF SARI 301700Z 3018/0118 VRB03KT CAVOK TX20/0118Z TN09/0110Z

Example: see airport list